createdAt,value
2023-01-23T00:00:13.843Z,2.30
2023-01-23T00:02:47.388Z,2.30
2023-01-23T00:05:14.194Z,2.30
2023-01-23T00:07:40.962Z,2.30
2023-01-23T00:10:15.257Z,2.30
2023-01-23T00:12:43.441Z,2.30
2023-01-23T00:15:12.263Z,2.30
2023-01-23T00:17:48.172Z,2.30
2023-01-23T00:20:15.390Z,2.30
2023-01-23T00:22:42.174Z,2.30
2023-01-23T00:25:16.087Z,2.30
2023-01-23T00:27:42.955Z,2.30
2023-01-23T00:30:17.256Z,2.30
2023-01-23T00:32:50.223Z,2.40
2023-01-23T00:35:24.253Z,2.40
2023-01-23T00:37:51.281Z,2.40
2023-01-23T00:40:18.461Z,2.40
2023-01-23T00:42:52.170Z,2.40
2023-01-23T00:45:19.413Z,2.30
2023-01-23T00:47:46.254Z,2.40
2023-01-23T00:50:21.446Z,2.40
2023-01-23T00:52:55.464Z,2.40
2023-01-23T00:55:22.296Z,2.30
2023-01-23T00:57:49.090Z,2.30
2023-01-23T01:00:23.185Z,2.30
2023-01-23T01:02:56.194Z,2.30
2023-01-23T01:05:23.004Z,2.30
2023-01-23T01:07:50.026Z,2.30
2023-01-23T01:10:23.508Z,2.30
2023-01-23T01:12:50.399Z,2.30
2023-01-23T01:15:17.185Z,2.30
2023-01-23T01:17:50.233Z,2.30
2023-01-23T01:20:17.167Z,2.30
2023-01-23T01:22:44.230Z,2.20
2023-01-23T01:25:17.285Z,2.20
2023-01-23T01:27:44.277Z,2.20
2023-01-23T01:30:18.718Z,2.20
2023-01-23T01:32:46.004Z,2.20
2023-01-23T01:35:19.204Z,2.20
2023-01-23T01:37:53.257Z,2.20
2023-01-23T01:40:34.182Z,2.10
2023-01-23T01:43:11.267Z,2.20
2023-01-23T01:46:09.111Z,2.20
2023-01-23T01:48:51.675Z,2.10
2023-01-23T01:51:24.641Z,2.10
2023-01-23T01:54:09.343Z,2.10
2023-01-23T01:56:43.021Z,2.10
2023-01-23T01:59:17.309Z,2.20
2023-01-23T02:01:47.300Z,2.20
2023-01-23T02:04:22.565Z,2.20
2023-01-23T02:06:51.883Z,2.20
2023-01-23T02:09:34.285Z,2.20
2023-01-23T02:12:04.817Z,2.20
2023-01-23T02:14:31.722Z,2.20
2023-01-23T02:17:07.367Z,2.20
2023-01-23T02:19:44.229Z,2.20
2023-01-23T02:22:38.734Z,2.20
2023-01-23T02:25:23.230Z,2.20
2023-01-23T02:27:57.275Z,2.20
2023-01-23T02:30:25.219Z,2.20
2023-01-23T02:32:52.040Z,2.20
2023-01-23T02:35:34.283Z,2.20
2023-01-23T02:38:04.707Z,2.20
2023-01-23T02:40:43.343Z,2.20
2023-01-23T02:43:14.984Z,2.20
2023-01-23T02:45:41.949Z,2.20
2023-01-23T02:48:15.628Z,2.20
2023-01-23T02:50:44.939Z,2.20
2023-01-23T02:53:12.275Z,2.20
2023-01-23T02:55:49.424Z,2.20
2023-01-23T02:58:34.856Z,2.20
2023-01-23T03:01:09.384Z,2.20
2023-01-23T03:03:42.559Z,2.20
2023-01-23T03:06:09.826Z,2.20
2023-01-23T03:08:54.703Z,2.20
2023-01-23T03:11:21.647Z,2.20
2023-01-23T03:13:48.533Z,2.30
2023-01-23T03:16:22.417Z,2.30
2023-01-23T03:18:54.841Z,2.30
2023-01-23T03:21:22.141Z,2.30
2023-01-23T03:23:55.499Z,2.30
2023-01-23T03:26:22.456Z,2.30
2023-01-23T03:29:14.410Z,2.30
2023-01-23T03:31:47.500Z,2.30
2023-01-23T03:34:21.365Z,2.30
2023-01-23T03:36:48.203Z,2.30
2023-01-23T03:39:40.738Z,2.30
2023-01-23T03:42:07.596Z,2.30
2023-01-23T03:44:34.627Z,2.30
2023-01-23T03:47:08.424Z,2.30
2023-01-23T03:49:35.264Z,2.30
2023-01-23T03:52:09.623Z,2.30
2023-01-23T03:54:37.227Z,2.30
2023-01-23T03:57:04.112Z,2.30
2023-01-23T03:59:37.450Z,2.30
2023-01-23T04:02:07.724Z,2.30
2023-01-23T04:04:35.026Z,2.30
2023-01-23T04:07:10.443Z,2.30
2023-01-23T04:09:37.426Z,2.30
2023-01-23T04:12:10.468Z,2.30
2023-01-23T04:14:37.728Z,2.30
2023-01-23T04:17:12.482Z,2.30
2023-01-23T04:19:39.377Z,2.30
2023-01-23T04:22:12.540Z,2.30
2023-01-23T04:24:39.358Z,2.30
2023-01-23T04:27:12.514Z,2.30
2023-01-23T04:29:39.311Z,2.30
2023-01-23T04:32:15.539Z,2.30
2023-01-23T04:34:42.330Z,2.30
2023-01-23T04:37:09.293Z,2.30
2023-01-23T04:39:42.558Z,2.30
2023-01-23T04:42:09.772Z,2.30
2023-01-23T04:44:36.531Z,2.30
2023-01-23T04:47:09.547Z,2.30
2023-01-23T04:49:36.271Z,2.30
2023-01-23T04:52:03.089Z,2.30
2023-01-23T04:54:36.533Z,2.30
2023-01-23T04:57:09.684Z,2.30
2023-01-23T04:59:36.493Z,2.30
2023-01-23T05:02:03.575Z,2.30
2023-01-23T05:04:36.650Z,2.30
2023-01-23T05:07:03.459Z,2.30
2023-01-23T05:09:30.233Z,2.40
2023-01-23T05:12:03.549Z,2.30
2023-01-23T05:14:30.329Z,2.40
2023-01-23T05:16:57.177Z,2.40
2023-01-23T05:19:30.921Z,2.40
2023-01-23T05:21:57.775Z,2.40
2023-01-23T05:24:24.691Z,2.40
2023-01-23T05:26:57.597Z,2.40
2023-01-23T05:29:30.607Z,2.40
2023-01-23T05:31:57.416Z,2.40
2023-01-23T05:34:24.235Z,2.40
2023-01-23T05:36:57.641Z,2.40
2023-01-23T05:39:24.433Z,2.40
2023-01-23T05:41:51.381Z,2.40
2023-01-23T05:44:24.593Z,2.40
2023-01-23T05:46:51.435Z,2.40
2023-01-23T05:49:24.607Z,2.40
2023-01-23T05:51:57.647Z,2.40
2023-01-23T05:54:24.530Z,2.40
2023-01-23T05:56:57.699Z,2.40
2023-01-23T05:59:24.480Z,2.50
2023-01-23T06:01:57.639Z,2.40
2023-01-23T06:04:32.669Z,2.50
2023-01-23T06:06:59.567Z,2.50
2023-01-23T06:09:26.403Z,2.50
2023-01-23T06:11:59.698Z,2.50
2023-01-23T06:14:32.644Z,2.40
2023-01-23T06:16:59.431Z,2.50
2023-01-23T06:19:32.683Z,2.40
2023-01-23T06:21:59.523Z,2.40
2023-01-23T06:24:39.727Z,2.40
2023-01-23T06:27:14.669Z,2.40
2023-01-23T06:29:41.523Z,2.40
2023-01-23T06:32:14.959Z,2.40
2023-01-23T06:34:41.710Z,2.40
2023-01-23T06:37:08.505Z,2.40
2023-01-23T06:39:41.715Z,2.40
2023-01-23T06:42:10.297Z,2.40
2023-01-23T06:44:37.795Z,2.40
2023-01-23T06:47:11.728Z,2.50
2023-01-23T06:49:38.737Z,2.50
2023-01-23T06:52:05.625Z,2.50
2023-01-23T06:54:38.689Z,2.50
2023-01-23T06:57:05.563Z,2.50
2023-01-23T06:59:38.814Z,2.50
2023-01-23T07:02:05.605Z,2.40
2023-01-23T07:04:46.733Z,2.50
2023-01-23T07:07:19.716Z,2.40
2023-01-23T07:09:52.743Z,2.40
2023-01-23T07:12:19.485Z,2.40
2023-01-23T07:14:52.825Z,2.40
2023-01-23T07:17:19.671Z,2.40
2023-01-23T07:19:46.468Z,2.50
2023-01-23T07:22:23.059Z,2.50
2023-01-23T07:24:49.873Z,2.50
2023-01-23T07:27:17.027Z,2.50
2023-01-23T07:29:51.088Z,2.50
2023-01-23T07:32:18.310Z,2.50
2023-01-23T07:34:45.235Z,2.50
2023-01-23T07:37:18.793Z,2.50
2023-01-23T07:39:51.932Z,2.50
2023-01-23T07:42:18.705Z,2.50
2023-01-23T07:44:45.530Z,2.50
2023-01-23T07:47:18.805Z,2.50
2023-01-23T07:49:46.183Z,2.60
2023-01-23T07:52:12.981Z,2.60
2023-01-23T07:54:45.826Z,2.60
2023-01-23T07:57:12.618Z,2.60
2023-01-23T07:59:39.463Z,2.60
2023-01-23T08:02:12.826Z,2.60
2023-01-23T08:04:39.786Z,2.60
2023-01-23T08:07:06.898Z,2.60
2023-01-23T08:09:40.101Z,2.60
2023-01-23T08:12:07.292Z,2.60
2023-01-23T08:14:34.059Z,2.60
2023-01-23T08:17:07.856Z,2.60
2023-01-23T08:19:34.632Z,2.70
2023-01-23T08:22:07.851Z,2.70
2023-01-23T08:24:34.642Z,2.70
2023-01-23T08:27:01.494Z,2.70
2023-01-23T08:29:34.850Z,2.80
2023-01-23T08:32:08.066Z,2.80
2023-01-23T08:34:34.891Z,2.90
2023-01-23T08:37:01.704Z,2.90
2023-01-23T08:39:35.135Z,3.00
2023-01-23T08:42:01.926Z,3.00
2023-01-23T08:44:31.225Z,3.00
2023-01-23T08:47:05.082Z,3.10
2023-01-23T08:49:31.915Z,3.10
2023-01-23T08:51:59.945Z,3.10
2023-01-23T08:54:33.985Z,3.20
2023-01-23T08:57:01.064Z,3.20
2023-01-23T08:59:28.739Z,3.30
2023-01-23T09:02:02.200Z,3.30
2023-01-23T09:04:29.518Z,3.30
2023-01-23T09:06:56.303Z,3.30
2023-01-23T09:09:30.026Z,3.30
2023-01-23T09:11:56.926Z,3.30
2023-01-23T09:14:23.808Z,3.30
2023-01-23T09:16:56.939Z,3.40
2023-01-23T09:19:24.188Z,3.30
2023-01-23T09:21:54.160Z,3.30
2023-01-23T09:24:28.207Z,3.30
2023-01-23T09:26:54.998Z,3.30
2023-01-23T09:29:21.861Z,3.30
2023-01-23T09:31:55.021Z,3.40
2023-01-23T09:34:28.301Z,3.40
2023-01-23T09:36:55.828Z,3.50
2023-01-23T09:39:22.630Z,3.50
2023-01-23T09:41:56.312Z,3.60
2023-01-23T09:44:36.293Z,3.60
2023-01-23T09:47:34.311Z,3.70
2023-01-23T09:50:06.329Z,3.80
2023-01-23T09:52:51.027Z,3.90
2023-01-23T09:55:49.058Z,3.90
2023-01-23T09:58:29.000Z,3.90
2023-01-23T10:00:55.871Z,3.90
2023-01-23T10:03:32.315Z,4.00
2023-01-23T10:06:16.331Z,4.00
2023-01-23T10:09:20.290Z,4.00
2023-01-23T10:12:01.788Z,4.10
2023-01-23T10:14:57.188Z,4.10
2023-01-23T10:17:32.949Z,4.20
2023-01-23T10:20:37.057Z,4.20
2023-01-23T10:23:13.068Z,4.30
2023-01-23T10:25:43.748Z,4.30
2023-01-23T10:28:33.312Z,4.30
2023-01-23T10:31:08.549Z,4.40
2023-01-23T10:33:55.093Z,4.40
2023-01-23T10:36:53.951Z,4.50
2023-01-23T10:39:43.247Z,4.60
2023-01-23T10:42:20.099Z,4.50
2023-01-23T10:44:54.265Z,4.50
2023-01-23T10:47:37.066Z,4.50
2023-01-23T10:50:13.098Z,4.40
2023-01-23T10:52:45.909Z,4.50
2023-01-23T10:55:26.078Z,4.70
2023-01-23T10:58:09.373Z,4.70
2023-01-23T11:00:46.711Z,4.70
2023-01-23T11:03:29.126Z,4.60
2023-01-23T11:06:07.999Z,4.50
2023-01-23T11:08:44.256Z,4.40
2023-01-23T11:11:16.942Z,4.40
2023-01-23T11:13:53.405Z,4.50
2023-01-23T11:16:22.695Z,4.50
2023-01-23T11:19:00.263Z,4.60
2023-01-23T11:21:48.619Z,4.70
2023-01-23T11:24:44.220Z,4.70
2023-01-23T11:27:23.643Z,4.50
2023-01-23T11:30:09.290Z,4.40
2023-01-23T11:33:01.915Z,4.40
2023-01-23T11:36:20.227Z,4.60
2023-01-23T11:38:58.025Z,4.70
2023-01-23T11:41:37.174Z,4.70
2023-01-23T11:44:10.025Z,4.80
2023-01-23T11:47:01.236Z,4.90
2023-01-23T11:50:06.014Z,4.80
2023-01-23T11:52:45.473Z,4.90
2023-01-23T11:55:41.361Z,5.00
2023-01-23T11:58:53.233Z,5.00
2023-01-23T12:01:49.270Z,5.10
2023-01-23T12:04:28.194Z,5.10
2023-01-23T12:07:22.214Z,5.10
2023-01-23T12:10:06.411Z,5.00
2023-01-23T12:12:52.189Z,4.90
2023-01-23T12:15:53.623Z,4.80
2023-01-23T12:18:42.533Z,4.90
2023-01-23T12:21:52.325Z,4.90
2023-01-23T12:24:25.177Z,5.00
2023-01-23T12:27:18.346Z,5.10
2023-01-23T12:30:11.201Z,5.10
2023-01-23T12:33:19.449Z,5.20
2023-01-23T12:36:19.842Z,5.30
2023-01-23T12:39:04.547Z,5.40
2023-01-23T12:41:34.588Z,5.50
2023-01-23T12:44:18.291Z,5.60
2023-01-23T12:47:01.010Z,5.60
2023-01-23T12:49:50.278Z,5.80
2023-01-23T12:52:23.725Z,5.90
2023-01-23T12:55:14.644Z,5.90
2023-01-23T12:57:59.676Z,5.80
2023-01-23T13:00:59.568Z,5.90
2023-01-23T13:03:49.281Z,5.80
2023-01-23T13:06:54.776Z,5.80
2023-01-23T13:09:50.307Z,5.80
2023-01-23T13:12:27.274Z,5.80
2023-01-23T13:15:38.876Z,5.90
2023-01-23T13:18:24.812Z,5.90
2023-01-23T13:21:23.488Z,5.90
2023-01-23T13:24:10.314Z,5.90
2023-01-23T13:26:43.335Z,5.90
2023-01-23T13:29:49.764Z,5.90
2023-01-23T13:32:31.343Z,5.90
2023-01-23T13:34:58.282Z,5.90
2023-01-23T13:37:47.329Z,5.90
2023-01-23T13:40:17.762Z,5.90
2023-01-23T13:42:51.366Z,5.90
2023-01-23T13:45:29.063Z,5.90
2023-01-23T14:21:30.348Z,5.40
2023-01-23T14:24:10.499Z,5.40
2023-01-23T14:26:49.401Z,5.40
2023-01-23T14:29:33.453Z,5.40
2023-01-23T14:32:00.307Z,5.40
2023-01-23T14:34:34.471Z,5.40
2023-01-23T14:37:05.005Z,5.40
2023-01-23T14:39:44.092Z,5.40
2023-01-23T14:42:30.583Z,5.40
2023-01-23T14:45:07.425Z,5.40
2023-01-23T14:47:56.179Z,5.40
2023-01-23T14:50:30.548Z,5.40
2023-01-23T14:53:22.523Z,5.30
2023-01-23T14:55:57.498Z,5.20
2023-01-23T14:58:26.061Z,5.20
2023-01-23T15:01:00.536Z,5.30
2023-01-23T15:03:39.218Z,5.20
2023-01-23T15:06:20.512Z,5.20
2023-01-23T15:08:48.825Z,5.20
2023-01-23T15:11:23.784Z,5.10
2023-01-23T15:13:55.242Z,5.00
2023-01-23T15:16:31.546Z,5.00
2023-01-23T15:19:06.200Z,5.00
2023-01-23T15:21:48.509Z,4.90
2023-01-23T15:24:15.391Z,4.90
2023-01-23T15:26:51.537Z,4.90
2023-01-23T15:29:20.360Z,4.80
2023-01-23T15:31:58.610Z,4.80
2023-01-23T15:34:26.804Z,4.70
2023-01-23T15:36:56.808Z,4.70
2023-01-23T15:39:33.566Z,4.60
2023-01-23T15:42:18.766Z,4.60
2023-01-23T15:44:52.605Z,4.60
2023-01-23T15:47:25.621Z,4.60
2023-01-23T15:49:58.505Z,4.60
2023-01-23T15:52:52.603Z,4.50
2023-01-23T15:55:22.405Z,4.60
2023-01-23T15:57:56.838Z,4.50
2023-01-23T16:00:27.121Z,4.50
2023-01-23T16:02:57.246Z,4.50
2023-01-23T16:05:37.597Z,4.50
2023-01-23T16:08:06.425Z,4.50
2023-01-23T16:10:46.628Z,4.50
2023-01-23T16:13:14.337Z,4.40
2023-01-23T16:15:49.056Z,4.40
2023-01-23T16:18:16.099Z,4.40
2023-01-23T16:20:51.590Z,4.40
2023-01-23T16:23:21.363Z,4.40
2023-01-23T16:25:49.322Z,4.40
2023-01-23T16:28:25.646Z,4.40
2023-01-23T16:30:59.683Z,4.40
2023-01-23T16:33:32.674Z,4.40
2023-01-23T16:35:59.538Z,4.40
2023-01-23T16:38:29.100Z,4.40
2023-01-23T16:41:04.605Z,4.40
2023-01-23T16:43:31.462Z,4.40
2023-01-23T16:46:04.825Z,4.40
2023-01-23T16:48:31.600Z,4.40
2023-01-23T16:51:14.692Z,4.40
2023-01-23T16:53:44.491Z,4.30
2023-01-23T16:56:36.693Z,4.30
2023-01-23T16:59:12.939Z,4.30
2023-01-23T17:01:43.568Z,4.30
2023-01-23T17:04:21.675Z,4.30
2023-01-23T17:06:49.217Z,4.20
2023-01-23T17:09:17.289Z,4.00
2023-01-23T17:12:01.784Z,3.90
2023-01-23T17:14:32.587Z,3.80
2023-01-23T17:17:13.703Z,3.70
2023-01-23T17:19:48.686Z,3.60
2023-01-23T17:22:34.985Z,3.50
2023-01-23T17:25:02.172Z,3.50
2023-01-23T17:27:29.389Z,3.50
2023-01-23T17:30:03.713Z,3.60
2023-01-23T17:32:35.742Z,3.70
2023-01-23T17:35:12.757Z,3.70
2023-01-23T17:37:46.711Z,3.80
2023-01-23T17:40:15.130Z,3.80
2023-01-23T17:42:48.760Z,3.90
2023-01-23T17:45:18.807Z,3.90
2023-01-23T17:47:59.732Z,3.90
2023-01-23T17:50:26.880Z,4.00
2023-01-23T17:53:00.851Z,4.00
2023-01-23T17:55:32.578Z,4.00
2023-01-23T17:58:00.833Z,4.00
2023-01-23T18:00:33.761Z,4.00
2023-01-23T18:03:09.003Z,4.10
2023-01-23T18:05:36.060Z,4.10
2023-01-23T18:08:02.970Z,4.10
2023-01-23T18:10:36.840Z,4.10
2023-01-23T18:13:33.735Z,4.10
2023-01-23T18:16:22.827Z,4.10
2023-01-23T18:19:11.234Z,4.10
2023-01-23T18:21:45.772Z,4.10
2023-01-23T18:24:32.955Z,4.10
2023-01-23T18:27:17.848Z,4.10
2023-01-23T18:30:06.442Z,4.10
2023-01-23T18:32:58.790Z,4.10
2023-01-23T18:35:48.093Z,4.10
2023-01-23T18:38:40.846Z,4.10
2023-01-23T18:41:25.868Z,4.10
2023-01-23T18:44:07.317Z,4.10
2023-01-23T18:46:40.821Z,4.10
2023-01-23T18:49:27.695Z,4.10
2023-01-23T18:52:08.543Z,4.00
2023-01-23T18:55:09.887Z,4.10
2023-01-23T18:58:01.859Z,4.00
2023-01-23T19:00:42.925Z,4.00
2023-01-23T19:03:44.850Z,4.00
2023-01-23T19:06:40.841Z,4.00
2023-01-23T19:09:25.028Z,4.00
2023-01-23T19:12:24.952Z,4.00
2023-01-23T19:15:35.886Z,4.00
2023-01-23T19:18:15.848Z,4.00
2023-01-23T19:20:54.875Z,4.00
2023-01-23T19:23:45.945Z,4.00
2023-01-23T19:26:17.089Z,4.00
2023-01-23T19:28:50.858Z,4.10
2023-01-23T19:31:30.959Z,4.10
2023-01-23T19:33:59.453Z,4.10
2023-01-23T19:36:34.296Z,4.10
2023-01-23T19:39:08.923Z,4.10
2023-01-23T19:41:48.678Z,4.10
2023-01-23T19:44:24.924Z,4.10
2023-01-23T19:46:58.980Z,4.10
2023-01-23T19:49:25.895Z,4.10
2023-01-23T19:51:59.926Z,4.10
2023-01-23T19:54:32.915Z,4.10
2023-01-23T19:56:59.760Z,4.00
2023-01-23T19:59:33.952Z,4.10
2023-01-23T20:02:07.996Z,4.10
2023-01-23T20:04:40.951Z,4.10
2023-01-23T20:07:13.959Z,4.10
2023-01-23T20:09:40.920Z,4.10
2023-01-23T20:12:13.926Z,4.10
2023-01-23T20:14:40.796Z,4.10
2023-01-23T20:17:13.986Z,4.10
2023-01-23T20:19:40.908Z,4.10
2023-01-23T20:22:14.024Z,4.10
2023-01-23T20:24:40.856Z,4.10
2023-01-23T20:27:14.974Z,4.10
2023-01-23T20:29:41.787Z,4.10
2023-01-23T20:32:08.580Z,4.00
2023-01-23T20:34:41.993Z,4.00
2023-01-23T20:37:15.997Z,4.10
2023-01-23T20:39:49.006Z,4.00
2023-01-23T20:42:16.017Z,4.00
2023-01-23T20:44:42.943Z,4.10
2023-01-23T20:47:15.994Z,4.00
2023-01-23T20:49:42.913Z,4.00
2023-01-23T20:52:36.026Z,4.10
2023-01-23T20:55:02.972Z,4.00
2023-01-23T20:57:56.007Z,4.00
2023-01-23T21:00:22.817Z,4.00
2023-01-23T21:02:50.026Z,4.00
2023-01-23T21:05:23.346Z,4.00
2023-01-23T21:08:00.127Z,4.00
2023-01-23T21:10:34.023Z,4.00
2023-01-23T21:13:05.333Z,4.00
2023-01-23T21:15:39.620Z,4.00
2023-01-23T21:18:06.527Z,4.00
2023-01-23T21:20:40.187Z,4.00
2023-01-23T21:23:07.115Z,4.00
2023-01-23T21:25:42.038Z,4.00
2023-01-23T21:28:15.158Z,4.00
2023-01-23T21:30:42.207Z,4.00
2023-01-23T21:33:09.108Z,4.00
2023-01-23T21:35:54.085Z,4.00
2023-01-23T21:38:22.880Z,4.00
2023-01-23T21:40:56.073Z,4.00
2023-01-23T21:43:29.213Z,4.00
2023-01-23T21:45:57.330Z,4.00
2023-01-23T21:48:24.953Z,4.00
2023-01-23T21:50:58.114Z,4.00
2023-01-23T21:53:24.830Z,4.00
2023-01-23T21:55:52.211Z,4.00
2023-01-23T21:58:26.093Z,4.00
2023-01-23T22:01:26.201Z,4.00
2023-01-23T22:04:00.197Z,4.00
2023-01-23T22:06:26.959Z,4.00
2023-01-23T22:08:53.970Z,4.00
2023-01-23T22:11:27.201Z,4.00
2023-01-23T22:13:54.097Z,4.00
2023-01-23T22:16:31.916Z,4.00
2023-01-23T22:19:14.111Z,4.00
2023-01-23T22:21:40.981Z,3.90
2023-01-23T22:24:14.213Z,3.90
2023-01-23T22:26:41.041Z,4.00
2023-01-23T22:29:15.269Z,3.90
2023-01-23T22:31:42.524Z,3.90
2023-01-23T22:34:16.183Z,3.90
2023-01-23T22:36:42.945Z,3.90
2023-01-23T22:39:18.171Z,3.90
2023-01-23T22:41:46.289Z,3.90
2023-01-23T22:44:20.198Z,3.90
2023-01-23T22:46:49.532Z,3.90
2023-01-23T22:49:23.199Z,3.90
2023-01-23T22:51:51.543Z,3.90
2023-01-23T22:54:25.267Z,3.90
2023-01-23T22:56:52.183Z,3.90
2023-01-23T22:59:19.008Z,3.90
2023-01-23T23:01:52.209Z,3.90
2023-01-23T23:04:25.190Z,3.90
2023-01-23T23:06:52.067Z,3.90
2023-01-23T23:09:29.316Z,3.90
2023-01-23T23:12:04.368Z,3.90
2023-01-23T23:14:31.224Z,3.90
2023-01-23T23:17:04.215Z,3.90
2023-01-23T23:19:31.360Z,3.90
2023-01-23T23:21:58.191Z,3.90
2023-01-23T23:24:31.207Z,3.90
2023-01-23T23:26:58.179Z,3.90
2023-01-23T23:29:24.999Z,3.90
2023-01-23T23:31:58.423Z,3.90
2023-01-23T23:34:25.275Z,3.90
2023-01-23T23:36:58.223Z,3.90
2023-01-23T23:39:32.257Z,3.80
2023-01-23T23:41:59.102Z,3.80
2023-01-23T23:44:32.257Z,3.80
2023-01-23T23:47:01.969Z,3.80
2023-01-23T23:49:35.249Z,3.80
2023-01-23T23:52:02.114Z,3.80
2023-01-23T23:54:28.884Z,3.80
2023-01-23T23:57:02.275Z,3.80
2023-01-23T23:59:29.097Z,3.90
